sensor_id;sensor_type;location;lat;lon;timestamp;P1;durP1;ratioP1;P2;durP2;ratioP2
1276;SDS011;631;51.024;13.826;2024-02-15T00:02:20;19.60;;;18.10;;
1276;SDS011;631;51.024;13.826;2024-02-15T00:04:45;19.73;;;18.07;;
1276;SDS011;631;51.024;13.826;2024-02-15T00:07:11;18.37;;;16.97;;
1276;SDS011;631;51.024;13.826;2024-02-15T00:09:37;17.57;;;16.37;;
1276;SDS011;631;51.024;13.826;2024-02-15T00:12:02;19.87;;;18.37;;
1276;SDS011;631;51.024;13.826;2024-02-15T00:14:28;27.50;;;25.07;;
1276;SDS011;631;51.024;13.826;2024-02-15T00:16:54;28.33;;;25.97;;
1276;SDS011;631;51.024;13.826;2024-02-15T00:19:20;22.47;;;20.47;;
1276;SDS011;631;51.024;13.826;2024-02-15T00:21:46;35.90;;;32.43;;
1276;SDS011;631;51.024;13.826;2024-02-15T00:24:12;26.50;;;24.20;;
1276;SDS011;631;51.024;13.826;2024-02-15T00:26:39;29.30;;;26.60;;
1276;SDS011;631;51.024;13.826;2024-02-15T00:29:05;22.53;;;20.63;;
1276;SDS011;631;51.024;13.826;2024-02-15T00:31:31;20.73;;;19.20;;
1276;SDS011;631;51.024;13.826;2024-02-15T00:33:57;21.93;;;20.23;;
1276;SDS011;631;51.024;13.826;2024-02-15T00:36:24;26.60;;;24.30;;
1276;SDS011;631;51.024;13.826;2024-02-15T00:38:50;35.50;;;32.20;;
1276;SDS011;631;51.024;13.826;2024-02-15T00:41:16;37.30;;;33.77;;
1276;SDS011;631;51.024;13.826;2024-02-15T00:43:42;35.57;;;32.30;;
1276;SDS011;631;51.024;13.826;2024-02-15T00:46:08;38.90;;;35.00;;
1276;SDS011;631;51.024;13.826;2024-02-15T00:48:34;41.70;;;37.60;;
1276;SDS011;631;51.024;13.826;2024-02-15T00:50:59;34.43;;;31.23;;
1276;SDS011;631;51.024;13.826;2024-02-15T00:53:25;26.80;;;24.43;;
1276;SDS011;631;51.024;13.826;2024-02-15T00:55:51;27.83;;;25.37;;
1276;SDS011;631;51.024;13.826;2024-02-15T00:58:17;26.27;;;23.63;;
1276;SDS011;631;51.024;13.826;2024-02-15T01:00:42;24.60;;;22.40;;
1276;SDS011;631;51.024;13.826;2024-02-15T01:03:08;23.60;;;21.50;;
1276;SDS011;631;51.024;13.826;2024-02-15T01:05:33;24.27;;;22.17;;
1276;SDS011;631;51.024;13.826;2024-02-15T01:07:59;28.47;;;25.40;;
1276;SDS011;631;51.024;13.826;2024-02-15T01:10:25;27.90;;;25.30;;
1276;SDS011;631;51.024;13.826;2024-02-15T01:12:51;30.13;;;27.07;;
1276;SDS011;631;51.024;13.826;2024-02-15T01:15:17;29.27;;;26.40;;
1276;SDS011;631;51.024;13.826;2024-02-15T01:17:45;30.07;;;26.90;;
1276;SDS011;631;51.024;13.826;2024-02-15T01:20:11;30.00;;;27.10;;
1276;SDS011;631;51.024;13.826;2024-02-15T01:22:36;29.20;;;26.30;;
1276;SDS011;631;51.024;13.826;2024-02-15T01:25:02;26.43;;;23.40;;
1276;SDS011;631;51.024;13.826;2024-02-15T01:27:28;27.47;;;24.70;;
1276;SDS011;631;51.024;13.826;2024-02-15T01:29:58;25.93;;;23.27;;
1276;SDS011;631;51.024;13.826;2024-02-15T01:32:23;27.47;;;23.50;;
1276;SDS011;631;51.024;13.826;2024-02-15T01:34:50;24.37;;;22.10;;
1276;SDS011;631;51.024;13.826;2024-02-15T01:37:18;24.17;;;21.73;;
1276;SDS011;631;51.024;13.826;2024-02-15T01:39:45;24.30;;;21.97;;
1276;SDS011;631;51.024;13.826;2024-02-15T01:42:11;24.60;;;22.20;;
1276;SDS011;631;51.024;13.826;2024-02-15T01:44:39;23.50;;;21.60;;
1276;SDS011;631;51.024;13.826;2024-02-15T01:47:05;22.90;;;21.00;;
1276;SDS011;631;51.024;13.826;2024-02-15T01:49:31;23.47;;;21.27;;
1276;SDS011;631;51.024;13.826;2024-02-15T01:51:58;23.27;;;21.30;;
1276;SDS011;631;51.024;13.826;2024-02-15T01:54:27;24.00;;;21.70;;
1276;SDS011;631;51.024;13.826;2024-02-15T01:56:53;22.80;;;20.60;;
1276;SDS011;631;51.024;13.826;2024-02-15T01:59:21;23.43;;;21.53;;
1276;SDS011;631;51.024;13.826;2024-02-15T02:01:48;21.73;;;19.90;;
1276;SDS011;631;51.024;13.826;2024-02-15T02:04:14;22.60;;;20.70;;
1276;SDS011;631;51.024;13.826;2024-02-15T02:06:40;22.20;;;20.20;;
1276;SDS011;631;51.024;13.826;2024-02-15T02:09:09;22.77;;;20.60;;
1276;SDS011;631;51.024;13.826;2024-02-15T02:11:37;21.03;;;19.20;;
1276;SDS011;631;51.024;13.826;2024-02-15T02:14:03;21.90;;;20.00;;
1276;SDS011;631;51.024;13.826;2024-02-15T02:16:29;21.43;;;19.60;;
1276;SDS011;631;51.024;13.826;2024-02-15T02:19:00;22.23;;;20.33;;
1276;SDS011;631;51.024;13.826;2024-02-15T02:21:26;21.93;;;19.87;;
1276;SDS011;631;51.024;13.826;2024-02-15T02:23:54;21.20;;;19.40;;
1276;SDS011;631;51.024;13.826;2024-02-15T02:26:21;20.53;;;18.80;;
1276;SDS011;631;51.024;13.826;2024-02-15T02:28:48;20.30;;;18.50;;
1276;SDS011;631;51.024;13.826;2024-02-15T02:31:14;21.20;;;19.40;;
1276;SDS011;631;51.024;13.826;2024-02-15T02:33:47;19.70;;;18.10;;
1276;SDS011;631;51.024;13.826;2024-02-15T02:36:16;19.50;;;18.00;;
1276;SDS011;631;51.024;13.826;2024-02-15T02:38:43;23.33;;;21.33;;
1276;SDS011;631;51.024;13.826;2024-02-15T02:41:10;24.47;;;22.23;;
1276;SDS011;631;51.024;13.826;2024-02-15T02:43:36;26.50;;;24.17;;
1276;SDS011;631;51.024;13.826;2024-02-15T02:46:02;28.23;;;25.53;;
1276;SDS011;631;51.024;13.826;2024-02-15T02:48:30;25.47;;;23.07;;
1276;SDS011;631;51.024;13.826;2024-02-15T02:50:56;28.40;;;25.40;;
1276;SDS011;631;51.024;13.826;2024-02-15T02:53:22;25.40;;;23.07;;
1276;SDS011;631;51.024;13.826;2024-02-15T02:55:49;24.10;;;22.00;;
1276;SDS011;631;51.024;13.826;2024-02-15T02:58:15;24.67;;;22.50;;
1276;SDS011;631;51.024;13.826;2024-02-15T03:00:40;23.67;;;21.53;;
1276;SDS011;631;51.024;13.826;2024-02-15T03:03:07;21.40;;;19.30;;
1276;SDS011;631;51.024;13.826;2024-02-15T03:05:34;19.70;;;18.00;;
1276;SDS011;631;51.024;13.826;2024-02-15T03:08:00;20.63;;;18.93;;
1276;SDS011;631;51.024;13.826;2024-02-15T03:10:25;20.13;;;18.47;;
1276;SDS011;631;51.024;13.826;2024-02-15T03:12:51;18.40;;;16.63;;
1276;SDS011;631;51.024;13.826;2024-02-15T03:15:17;19.70;;;18.00;;
1276;SDS011;631;51.024;13.826;2024-02-15T03:17:43;18.10;;;16.70;;
1276;SDS011;631;51.024;13.826;2024-02-15T03:20:11;17.43;;;16.03;;
1276;SDS011;631;51.024;13.826;2024-02-15T03:25:18;18.13;;;16.73;;
1276;SDS011;631;51.024;13.826;2024-02-15T03:27:44;18.20;;;16.63;;
1276;SDS011;631;51.024;13.826;2024-02-15T03:30:10;18.47;;;16.97;;
1276;SDS011;631;51.024;13.826;2024-02-15T03:32:35;18.13;;;16.43;;
1276;SDS011;631;51.024;13.826;2024-02-15T03:35:02;16.87;;;15.47;;
1276;SDS011;631;51.024;13.826;2024-02-15T03:37:28;18.37;;;16.90;;
1276;SDS011;631;51.024;13.826;2024-02-15T03:39:53;17.93;;;16.40;;
1276;SDS011;631;51.024;13.826;2024-02-15T03:42:20;19.40;;;17.90;;
1276;SDS011;631;51.024;13.826;2024-02-15T03:44:45;17.30;;;16.17;;
1276;SDS011;631;51.024;13.826;2024-02-15T03:47:12;18.07;;;16.70;;
1276;SDS011;631;51.024;13.826;2024-02-15T03:49:39;17.27;;;15.97;;
1276;SDS011;631;51.024;13.826;2024-02-15T03:52:07;17.37;;;15.87;;
1276;SDS011;631;51.024;13.826;2024-02-15T03:54:35;18.50;;;16.80;;
1276;SDS011;631;51.024;13.826;2024-02-15T03:57:01;18.33;;;16.83;;
1276;SDS011;631;51.024;13.826;2024-02-15T03:59:27;18.73;;;17.20;;
1276;SDS011;631;51.024;13.826;2024-02-15T04:01:53;17.87;;;16.47;;
1276;SDS011;631;51.024;13.826;2024-02-15T04:04:19;19.00;;;17.50;;
1276;SDS011;631;51.024;13.826;2024-02-15T04:06:51;18.70;;;17.30;;
1276;SDS011;631;51.024;13.826;2024-02-15T04:09:17;18.00;;;16.60;;
1276;SDS011;631;51.024;13.826;2024-02-15T04:11:43;18.47;;;17.00;;
1276;SDS011;631;51.024;13.826;2024-02-15T04:14:12;17.97;;;16.40;;
1276;SDS011;631;51.024;13.826;2024-02-15T04:16:37;18.20;;;16.70;;
1276;SDS011;631;51.024;13.826;2024-02-15T04:19:03;18.97;;;17.37;;
1276;SDS011;631;51.024;13.826;2024-02-15T04:21:29;19.30;;;17.80;;
1276;SDS011;631;51.024;13.826;2024-02-15T04:23:55;19.03;;;17.37;;
1276;SDS011;631;51.024;13.826;2024-02-15T04:26:21;19.00;;;17.40;;
1276;SDS011;631;51.024;13.826;2024-02-15T04:28:51;19.40;;;17.70;;
1276;SDS011;631;51.024;13.826;2024-02-15T04:31:20;19.57;;;17.87;;
1276;SDS011;631;51.024;13.826;2024-02-15T04:33:51;17.10;;;15.70;;
1276;SDS011;631;51.024;13.826;2024-02-15T04:36:17;18.00;;;16.60;;
1276;SDS011;631;51.024;13.826;2024-02-15T04:38:48;19.60;;;17.80;;
1276;SDS011;631;51.024;13.826;2024-02-15T04:41:15;17.90;;;16.50;;
1276;SDS011;631;51.024;13.826;2024-02-15T04:43:45;17.50;;;16.00;;
1276;SDS011;631;51.024;13.826;2024-02-15T04:46:11;18.10;;;16.63;;
1276;SDS011;631;51.024;13.826;2024-02-15T04:48:39;18.80;;;17.40;;
1276;SDS011;631;51.024;13.826;2024-02-15T04:51:07;17.70;;;16.20;;
1276;SDS011;631;51.024;13.826;2024-02-15T04:53:32;18.03;;;16.30;;
1276;SDS011;631;51.024;13.826;2024-02-15T04:55:58;17.30;;;15.90;;
1276;SDS011;631;51.024;13.826;2024-02-15T04:58:26;17.57;;;16.07;;
1276;SDS011;631;51.024;13.826;2024-02-15T05:00:54;17.67;;;16.17;;
1276;SDS011;631;51.024;13.826;2024-02-15T05:03:24;18.07;;;16.57;;
1276;SDS011;631;51.024;13.826;2024-02-15T05:05:49;18.23;;;16.67;;
1276;SDS011;631;51.024;13.826;2024-02-15T05:08:15;18.63;;;17.13;;
1276;SDS011;631;51.024;13.826;2024-02-15T05:10:41;17.47;;;15.97;;
1276;SDS011;631;51.024;13.826;2024-02-15T05:13:06;17.87;;;16.33;;
1276;SDS011;631;51.024;13.826;2024-02-15T05:15:33;18.50;;;16.80;;
1276;SDS011;631;51.024;13.826;2024-02-15T05:17:58;18.40;;;16.80;;
1276;SDS011;631;51.024;13.826;2024-02-15T05:20:27;18.03;;;16.43;;
1276;SDS011;631;51.024;13.826;2024-02-15T05:22:52;17.87;;;16.27;;
1276;SDS011;631;51.024;13.826;2024-02-15T05:25:19;18.17;;;16.67;;
1276;SDS011;631;51.024;13.826;2024-02-15T05:27:48;17.57;;;16.10;;
1276;SDS011;631;51.024;13.826;2024-02-15T05:30:13;17.47;;;15.97;;
1276;SDS011;631;51.024;13.826;2024-02-15T05:32:40;18.37;;;16.67;;
1276;SDS011;631;51.024;13.826;2024-02-15T05:35:10;18.47;;;16.77;;
1276;SDS011;631;51.024;13.826;2024-02-15T05:37:36;17.90;;;16.33;;
1276;SDS011;631;51.024;13.826;2024-02-15T05:40:05;18.10;;;16.30;;
1276;SDS011;631;51.024;13.826;2024-02-15T05:42:32;18.10;;;16.60;;
1276;SDS011;631;51.024;13.826;2024-02-15T05:45:14;18.73;;;17.20;;
1276;SDS011;631;51.024;13.826;2024-02-15T05:47:54;18.23;;;16.73;;
1276;SDS011;631;51.024;13.826;2024-02-15T05:50:20;18.97;;;17.33;;
1276;SDS011;631;51.024;13.826;2024-02-15T05:52:49;18.07;;;16.67;;
1276;SDS011;631;51.024;13.826;2024-02-15T05:55:20;18.57;;;16.97;;
1276;SDS011;631;51.024;13.826;2024-02-15T05:57:46;19.30;;;17.70;;
1276;SDS011;631;51.024;13.826;2024-02-15T06:00:11;19.33;;;17.73;;
1276;SDS011;631;51.024;13.826;2024-02-15T06:02:37;18.57;;;16.97;;
1276;SDS011;631;51.024;13.826;2024-02-15T06:05:03;19.27;;;17.70;;
1276;SDS011;631;51.024;13.826;2024-02-15T06:07:30;19.13;;;17.43;;
1276;SDS011;631;51.024;13.826;2024-02-15T06:09:59;18.90;;;17.30;;
1276;SDS011;631;51.024;13.826;2024-02-15T06:12:29;18.07;;;16.57;;
1276;SDS011;631;51.024;13.826;2024-02-15T06:14:55;19.10;;;17.50;;
1276;SDS011;631;51.024;13.826;2024-02-15T06:17:20;18.83;;;17.13;;
1276;SDS011;631;51.024;13.826;2024-02-15T06:19:46;19.90;;;18.10;;
1276;SDS011;631;51.024;13.826;2024-02-15T06:22:12;18.53;;;16.57;;
1276;SDS011;631;51.024;13.826;2024-02-15T06:24:38;19.73;;;18.07;;
1276;SDS011;631;51.024;13.826;2024-02-15T06:27:04;20.57;;;18.63;;
1276;SDS011;631;51.024;13.826;2024-02-15T06:29:30;19.40;;;17.90;;
1276;SDS011;631;51.024;13.826;2024-02-15T06:32:15;19.10;;;17.30;;
1276;SDS011;631;51.024;13.826;2024-02-15T06:34:59;19.97;;;18.20;;
1276;SDS011;631;51.024;13.826;2024-02-15T06:37:43;21.20;;;19.30;;
1276;SDS011;631;51.024;13.826;2024-02-15T06:40:27;20.13;;;18.30;;
1276;SDS011;631;51.024;13.826;2024-02-15T06:42:53;19.53;;;17.63;;
1276;SDS011;631;51.024;13.826;2024-02-15T06:45:19;20.00;;;17.80;;
1276;SDS011;631;51.024;13.826;2024-02-15T06:47:44;21.60;;;19.50;;
1276;SDS011;631;51.024;13.826;2024-02-15T06:50:11;21.50;;;19.60;;
1276;SDS011;631;51.024;13.826;2024-02-15T06:52:37;19.73;;;18.03;;
1276;SDS011;631;51.024;13.826;2024-02-15T06:55:06;20.60;;;18.90;;
1276;SDS011;631;51.024;13.826;2024-02-15T06:57:33;20.97;;;19.17;;
1276;SDS011;631;51.024;13.826;2024-02-15T07:00:05;21.10;;;19.27;;
1276;SDS011;631;51.024;13.826;2024-02-15T07:02:35;21.43;;;19.53;;
1276;SDS011;631;51.024;13.826;2024-02-15T07:05:01;20.20;;;18.43;;
1276;SDS011;631;51.024;13.826;2024-02-15T07:07:29;19.00;;;17.40;;
1276;SDS011;631;51.024;13.826;2024-02-15T07:09:56;22.93;;;20.70;;
1276;SDS011;631;51.024;13.826;2024-02-15T07:12:22;20.27;;;18.27;;
1276;SDS011;631;51.024;13.826;2024-02-15T07:14:48;20.67;;;18.70;;
1276;SDS011;631;51.024;13.826;2024-02-15T07:17:14;19.77;;;18.07;;
1276;SDS011;631;51.024;13.826;2024-02-15T07:19:43;22.20;;;20.10;;
1276;SDS011;631;51.024;13.826;2024-02-15T07:22:09;20.10;;;18.30;;
1276;SDS011;631;51.024;13.826;2024-02-15T07:24:36;21.00;;;19.00;;
1276;SDS011;631;51.024;13.826;2024-02-15T07:27:03;21.13;;;19.23;;
1276;SDS011;631;51.024;13.826;2024-02-15T07:29:30;21.70;;;19.60;;
1276;SDS011;631;51.024;13.826;2024-02-15T07:31:57;20.97;;;18.90;;
1276;SDS011;631;51.024;13.826;2024-02-15T07:34:24;21.97;;;19.67;;
1276;SDS011;631;51.024;13.826;2024-02-15T07:36:51;21.37;;;19.33;;
1276;SDS011;631;51.024;13.826;2024-02-15T07:39:17;22.10;;;20.13;;
1276;SDS011;631;51.024;13.826;2024-02-15T07:41:52;20.60;;;18.70;;
1276;SDS011;631;51.024;13.826;2024-02-15T07:44:19;21.17;;;18.13;;
1276;SDS011;631;51.024;13.826;2024-02-15T07:46:45;22.53;;;20.33;;
1276;SDS011;631;51.024;13.826;2024-02-15T07:49:11;23.20;;;19.10;;
1276;SDS011;631;51.024;13.826;2024-02-15T07:51:37;21.50;;;19.47;;
1276;SDS011;631;51.024;13.826;2024-02-15T07:54:02;22.27;;;19.60;;
1276;SDS011;631;51.024;13.826;2024-02-15T07:56:29;21.57;;;19.47;;
1276;SDS011;631;51.024;13.826;2024-02-15T07:58:55;21.30;;;19.30;;
1276;SDS011;631;51.024;13.826;2024-02-15T08:01:21;22.00;;;19.90;;
1276;SDS011;631;51.024;13.826;2024-02-15T08:03:47;20.10;;;18.30;;
1276;SDS011;631;51.024;13.826;2024-02-15T08:06:13;22.33;;;20.27;;
1276;SDS011;631;51.024;13.826;2024-02-15T08:08:42;21.27;;;19.17;;
1276;SDS011;631;51.024;13.826;2024-02-15T08:11:12;21.57;;;19.47;;
1276;SDS011;631;51.024;13.826;2024-02-15T08:13:45;22.73;;;20.57;;
1276;SDS011;631;51.024;13.826;2024-02-15T08:16:17;22.60;;;20.40;;
1276;SDS011;631;51.024;13.826;2024-02-15T08:18:44;20.70;;;18.70;;
1276;SDS011;631;51.024;13.826;2024-02-15T08:21:11;21.53;;;19.37;;
1276;SDS011;631;51.024;13.826;2024-02-15T08:23:37;22.40;;;20.30;;
1276;SDS011;631;51.024;13.826;2024-02-15T08:26:03;21.20;;;19.40;;
1276;SDS011;631;51.024;13.826;2024-02-15T08:28:29;22.17;;;20.17;;
1276;SDS011;631;51.024;13.826;2024-02-15T08:30:55;22.37;;;20.30;;
1276;SDS011;631;51.024;13.826;2024-02-15T08:33:23;23.00;;;20.80;;
1276;SDS011;631;51.024;13.826;2024-02-15T08:35:49;22.73;;;20.73;;
1276;SDS011;631;51.024;13.826;2024-02-15T08:38:16;22.87;;;20.77;;
1276;SDS011;631;51.024;13.826;2024-02-15T08:40:42;22.27;;;20.30;;
1276;SDS011;631;51.024;13.826;2024-02-15T08:43:10;22.20;;;20.50;;
1276;SDS011;631;51.024;13.826;2024-02-15T08:45:36;20.63;;;18.93;;
1276;SDS011;631;51.024;13.826;2024-02-15T08:48:02;21.33;;;19.53;;
1276;SDS011;631;51.024;13.826;2024-02-15T08:50:29;20.10;;;18.53;;
1276;SDS011;631;51.024;13.826;2024-02-15T08:52:55;19.83;;;18.40;;
1276;SDS011;631;51.024;13.826;2024-02-15T08:55:21;18.90;;;17.50;;
1276;SDS011;631;51.024;13.826;2024-02-15T08:57:51;17.97;;;16.60;;
1276;SDS011;631;51.024;13.826;2024-02-15T09:00:18;17.87;;;16.43;;
1276;SDS011;631;51.024;13.826;2024-02-15T09:02:44;17.23;;;16.00;;
1276;SDS011;631;51.024;13.826;2024-02-15T09:05:14;16.70;;;15.47;;
1276;SDS011;631;51.024;13.826;2024-02-15T09:07:42;17.83;;;16.53;;
1276;SDS011;631;51.024;13.826;2024-02-15T09:10:08;18.40;;;16.90;;
1276;SDS011;631;51.024;13.826;2024-02-15T09:12:44;18.47;;;16.90;;
1276;SDS011;631;51.024;13.826;2024-02-15T09:15:13;18.53;;;17.17;;
1276;SDS011;631;51.024;13.826;2024-02-15T09:17:39;17.40;;;16.10;;
1276;SDS011;631;51.024;13.826;2024-02-15T09:20:09;17.33;;;15.73;;
1276;SDS011;631;51.024;13.826;2024-02-15T09:22:52;17.97;;;16.57;;
1276;SDS011;631;51.024;13.826;2024-02-15T09:25:21;18.20;;;16.90;;
1276;SDS011;631;51.024;13.826;2024-02-15T09:27:51;17.50;;;16.10;;
1276;SDS011;631;51.024;13.826;2024-02-15T09:30:20;17.60;;;16.30;;
1276;SDS011;631;51.024;13.826;2024-02-15T09:32:49;17.43;;;15.90;;
1276;SDS011;631;51.024;13.826;2024-02-15T09:35:15;19.03;;;17.43;;
1276;SDS011;631;51.024;13.826;2024-02-15T09:37:47;18.10;;;16.60;;
1276;SDS011;631;51.024;13.826;2024-02-15T09:40:17;18.47;;;17.00;;
1276;SDS011;631;51.024;13.826;2024-02-15T09:42:44;17.07;;;15.87;;
1276;SDS011;631;51.024;13.826;2024-02-15T09:45:12;18.67;;;17.30;;
1276;SDS011;631;51.024;13.826;2024-02-15T09:47:40;18.13;;;16.73;;
1276;SDS011;631;51.024;13.826;2024-02-15T09:50:06;17.27;;;15.87;;
1276;SDS011;631;51.024;13.826;2024-02-15T09:52:33;18.40;;;17.00;;
1276;SDS011;631;51.024;13.826;2024-02-15T09:55:03;17.87;;;16.53;;
1276;SDS011;631;51.024;13.826;2024-02-15T09:57:29;18.97;;;17.50;;
1276;SDS011;631;51.024;13.826;2024-02-15T09:59:57;19.33;;;17.73;;
1276;SDS011;631;51.024;13.826;2024-02-15T10:02:24;17.67;;;16.17;;
1276;SDS011;631;51.024;13.826;2024-02-15T10:04:52;18.03;;;16.67;;
1276;SDS011;631;51.024;13.826;2024-02-15T10:07:21;20.10;;;18.50;;
1276;SDS011;631;51.024;13.826;2024-02-15T10:09:51;19.03;;;17.53;;
1276;SDS011;631;51.024;13.826;2024-02-15T10:12:17;19.00;;;17.50;;
1276;SDS011;631;51.024;13.826;2024-02-15T10:14:49;19.83;;;18.20;;
1276;SDS011;631;51.024;13.826;2024-02-15T10:17:17;19.07;;;17.67;;
1276;SDS011;631;51.024;13.826;2024-02-15T10:19:44;18.77;;;17.17;;
1276;SDS011;631;51.024;13.826;2024-02-15T10:22:11;19.40;;;17.80;;
1276;SDS011;631;51.024;13.826;2024-02-15T10:24:39;19.07;;;17.70;;
1276;SDS011;631;51.024;13.826;2024-02-15T10:27:06;18.07;;;16.70;;
1276;SDS011;631;51.024;13.826;2024-02-15T10:29:32;19.80;;;18.30;;
1276;SDS011;631;51.024;13.826;2024-02-15T10:32:01;19.10;;;17.60;;
1276;SDS011;631;51.024;13.826;2024-02-15T10:34:29;19.80;;;18.20;;
1276;SDS011;631;51.024;13.826;2024-02-15T10:37:16;19.40;;;17.80;;
1276;SDS011;631;51.024;13.826;2024-02-15T10:39:42;19.27;;;17.80;;
1276;SDS011;631;51.024;13.826;2024-02-15T10:42:07;18.67;;;17.17;;
1276;SDS011;631;51.024;13.826;2024-02-15T10:44:36;20.77;;;19.07;;
1276;SDS011;631;51.024;13.826;2024-02-15T10:47:05;19.80;;;18.27;;
1276;SDS011;631;51.024;13.826;2024-02-15T10:49:32;19.50;;;17.97;;
1276;SDS011;631;51.024;13.826;2024-02-15T10:52:00;19.00;;;17.40;;
1276;SDS011;631;51.024;13.826;2024-02-15T10:57:11;18.97;;;17.50;;
1276;SDS011;631;51.024;13.826;2024-02-15T10:59:39;18.60;;;17.10;;
1276;SDS011;631;51.024;13.826;2024-02-15T11:02:28;19.13;;;17.57;;
1276;SDS011;631;51.024;13.826;2024-02-15T11:04:55;17.33;;;16.03;;
1276;SDS011;631;51.024;13.826;2024-02-15T11:07:30;18.07;;;16.47;;
1276;SDS011;631;51.024;13.826;2024-02-15T11:09:57;17.00;;;15.60;;
1276;SDS011;631;51.024;13.826;2024-02-15T11:12:24;16.63;;;15.40;;
1276;SDS011;631;51.024;13.826;2024-02-15T11:14:53;18.50;;;16.90;;
1276;SDS011;631;51.024;13.826;2024-02-15T11:20:08;18.20;;;16.60;;
1276;SDS011;631;51.024;13.826;2024-02-15T11:22:36;17.60;;;16.30;;
1276;SDS011;631;51.024;13.826;2024-02-15T11:25:03;17.47;;;16.07;;
1276;SDS011;631;51.024;13.826;2024-02-15T11:27:33;19.00;;;17.50;;
1276;SDS011;631;51.024;13.826;2024-02-15T11:30:02;18.37;;;16.87;;
1276;SDS011;631;51.024;13.826;2024-02-15T11:35:09;18.77;;;17.20;;
1276;SDS011;631;51.024;13.826;2024-02-15T11:40:17;19.83;;;18.23;;
1276;SDS011;631;51.024;13.826;2024-02-15T11:42:43;21.00;;;19.30;;
1276;SDS011;631;51.024;13.826;2024-02-15T11:45:09;20.20;;;18.50;;
1276;SDS011;631;51.024;13.826;2024-02-15T11:47:39;19.60;;;18.10;;
1276;SDS011;631;51.024;13.826;2024-02-15T11:50:07;20.20;;;18.60;;
1276;SDS011;631;51.024;13.826;2024-02-15T11:52:43;18.23;;;16.70;;
1276;SDS011;631;51.024;13.826;2024-02-15T11:55:11;20.30;;;18.70;;
1276;SDS011;631;51.024;13.826;2024-02-15T11:57:38;18.70;;;17.30;;
1276;SDS011;631;51.024;13.826;2024-02-15T12:00:21;20.00;;;18.50;;
1276;SDS011;631;51.024;13.826;2024-02-15T12:03:07;19.57;;;18.03;;
1276;SDS011;631;51.024;13.826;2024-02-15T12:05:52;17.80;;;16.40;;
1276;SDS011;631;51.024;13.826;2024-02-15T12:08:37;17.33;;;16.03;;
1276;SDS011;631;51.024;13.826;2024-02-15T12:11:21;16.70;;;15.40;;
1276;SDS011;631;51.024;13.826;2024-02-15T12:14:05;19.17;;;17.63;;
1276;SDS011;631;51.024;13.826;2024-02-15T12:17:06;18.80;;;17.30;;
1276;SDS011;631;51.024;13.826;2024-02-15T12:19:52;17.13;;;15.87;;
1276;SDS011;631;51.024;13.826;2024-02-15T12:22:23;16.70;;;15.60;;
1276;SDS011;631;51.024;13.826;2024-02-15T12:25:00;17.17;;;15.83;;
1276;SDS011;631;51.024;13.826;2024-02-15T12:27:31;16.20;;;15.20;;
1276;SDS011;631;51.024;13.826;2024-02-15T12:29:57;14.30;;;13.50;;
1276;SDS011;631;51.024;13.826;2024-02-15T12:32:26;15.13;;;14.23;;
1276;SDS011;631;51.024;13.826;2024-02-15T12:34:52;15.60;;;14.40;;
1276;SDS011;631;51.024;13.826;2024-02-15T12:37:19;18.60;;;17.17;;
1276;SDS011;631;51.024;13.826;2024-02-15T12:39:48;16.73;;;15.53;;
1276;SDS011;631;51.024;13.826;2024-02-15T12:42:15;19.43;;;17.93;;
1276;SDS011;631;51.024;13.826;2024-02-15T12:44:45;17.10;;;16.00;;
1276;SDS011;631;51.024;13.826;2024-02-15T12:47:18;16.37;;;15.27;;
1276;SDS011;631;51.024;13.826;2024-02-15T12:49:45;16.97;;;15.87;;
1276;SDS011;631;51.024;13.826;2024-02-15T12:55:06;16.03;;;15.03;;
1276;SDS011;631;51.024;13.826;2024-02-15T12:57:33;15.30;;;14.40;;
1276;SDS011;631;51.024;13.826;2024-02-15T12:59:59;15.30;;;14.30;;
1276;SDS011;631;51.024;13.826;2024-02-15T13:02:25;15.20;;;14.30;;
1276;SDS011;631;51.024;13.826;2024-02-15T13:04:56;16.97;;;15.80;;
1276;SDS011;631;51.024;13.826;2024-02-15T13:07:23;15.70;;;14.70;;
1276;SDS011;631;51.024;13.826;2024-02-15T13:09:48;15.00;;;14.10;;
1276;SDS011;631;51.024;13.826;2024-02-15T13:12:14;14.40;;;13.60;;
1276;SDS011;631;51.024;13.826;2024-02-15T13:14:40;15.33;;;14.30;;
1276;SDS011;631;51.024;13.826;2024-02-15T13:17:05;14.67;;;13.87;;
1276;SDS011;631;51.024;13.826;2024-02-15T13:19:31;14.67;;;13.87;;
1276;SDS011;631;51.024;13.826;2024-02-15T13:21:59;15.83;;;14.83;;
1276;SDS011;631;51.024;13.826;2024-02-15T13:24:24;17.57;;;16.37;;
1276;SDS011;631;51.024;13.826;2024-02-15T13:26:51;16.10;;;15.03;;
1276;SDS011;631;51.024;13.826;2024-02-15T13:29:17;14.97;;;14.03;;
1276;SDS011;631;51.024;13.826;2024-02-15T13:31:42;15.67;;;14.57;;
1276;SDS011;631;51.024;13.826;2024-02-15T13:34:08;15.57;;;14.57;;
1276;SDS011;631;51.024;13.826;2024-02-15T13:36:37;15.30;;;14.30;;
1276;SDS011;631;51.024;13.826;2024-02-15T13:39:03;15.00;;;14.07;;
1276;SDS011;631;51.024;13.826;2024-02-15T13:41:30;14.97;;;14.07;;
1276;SDS011;631;51.024;13.826;2024-02-15T13:43:55;13.47;;;12.57;;
1276;SDS011;631;51.024;13.826;2024-02-15T13:46:21;13.30;;;12.50;;
1276;SDS011;631;51.024;13.826;2024-02-15T13:48:46;13.30;;;12.50;;
1276;SDS011;631;51.024;13.826;2024-02-15T13:51:12;14.43;;;13.57;;
1276;SDS011;631;51.024;13.826;2024-02-15T13:53:39;14.00;;;13.20;;
1276;SDS011;631;51.024;13.826;2024-02-15T13:56:04;13.80;;;13.10;;
1276;SDS011;631;51.024;13.826;2024-02-15T13:58:31;13.70;;;12.90;;
1276;SDS011;631;51.024;13.826;2024-02-15T14:00:57;13.20;;;12.50;;
1276;SDS011;631;51.024;13.826;2024-02-15T14:03:25;13.10;;;12.30;;
1276;SDS011;631;51.024;13.826;2024-02-15T14:05:51;14.23;;;13.37;;
1276;SDS011;631;51.024;13.826;2024-02-15T14:08:16;13.67;;;12.87;;
1276;SDS011;631;51.024;13.826;2024-02-15T14:10:43;13.90;;;12.90;;
1276;SDS011;631;51.024;13.826;2024-02-15T14:13:09;12.70;;;11.97;;
1276;SDS011;631;51.024;13.826;2024-02-15T14:15:36;13.80;;;13.00;;
1276;SDS011;631;51.024;13.826;2024-02-15T14:18:09;14.20;;;13.30;;
1276;SDS011;631;51.024;13.826;2024-02-15T14:20:36;13.97;;;12.97;;
1276;SDS011;631;51.024;13.826;2024-02-15T14:23:02;14.10;;;13.20;;
1276;SDS011;631;51.024;13.826;2024-02-15T14:25:31;14.20;;;13.20;;
1276;SDS011;631;51.024;13.826;2024-02-15T14:27:57;14.30;;;13.30;;
1276;SDS011;631;51.024;13.826;2024-02-15T14:30:23;14.57;;;13.57;;
1276;SDS011;631;51.024;13.826;2024-02-15T14:33:08;15.10;;;14.00;;
1276;SDS011;631;51.024;13.826;2024-02-15T14:35:36;14.90;;;14.00;;
1276;SDS011;631;51.024;13.826;2024-02-15T14:38:05;15.03;;;14.03;;
1276;SDS011;631;51.024;13.826;2024-02-15T14:40:33;14.77;;;13.87;;
1276;SDS011;631;51.024;13.826;2024-02-15T14:43:00;14.90;;;14.00;;
1276;SDS011;631;51.024;13.826;2024-02-15T14:45:27;14.83;;;13.83;;
1276;SDS011;631;51.024;13.826;2024-02-15T14:47:53;16.90;;;15.30;;
1276;SDS011;631;51.024;13.826;2024-02-15T14:50:19;15.70;;;14.70;;
1276;SDS011;631;51.024;13.826;2024-02-15T14:52:46;15.93;;;14.90;;
1276;SDS011;631;51.024;13.826;2024-02-15T14:55:13;15.03;;;14.13;;
1276;SDS011;631;51.024;13.826;2024-02-15T14:57:38;14.90;;;13.70;;
1276;SDS011;631;51.024;13.826;2024-02-15T15:00:05;15.60;;;14.53;;
1276;SDS011;631;51.024;13.826;2024-02-15T15:02:37;15.97;;;14.77;;
1276;SDS011;631;51.024;13.826;2024-02-15T15:05:03;16.23;;;15.23;;
1276;SDS011;631;51.024;13.826;2024-02-15T15:07:48;16.87;;;15.57;;
1276;SDS011;631;51.024;13.826;2024-02-15T15:10:32;17.10;;;15.90;;